Time;durP1;ratioP1;P1;durP2;ratioP2;P2;SDS_P1;SDS_P2;PMS_P1;PMS_P2;Temp;Humidity;BMP_temperature;BMP_pressure;BME280_temperature;BME280_humidity;BME280_pressure;Samples;Min_cycle;Max_cycle;Signal;HPM_P1;HPM_P2
2023/03/25 00:00:59;;;;;;;1.70;1.60;;;9.50;99.90;;;;;;5044777;28;20178;-84
2023/03/25 00:03:27;;;;;;;2.97;1.70;;;9.50;99.90;;;;;;5046321;28;20278;-85
2023/03/25 00:05:53;;;;;;;2.87;1.83;;;9.40;99.90;;;;;;5041163;28;20177;-82
2023/03/25 00:08:19;;;;;;;3.07;1.80;;;9.40;99.90;;;;;;5034654;28;20187;-85
2023/03/25 00:10:45;;;;;;;3.10;1.50;;;9.40;99.90;;;;;;5034047;28;20272;-83
2023/03/25 00:13:12;;;;;;;5.90;2.03;;;9.40;99.90;;;;;;5026049;28;20217;-85
2023/03/25 00:15:45;;;;;;;7.57;1.80;;;9.40;99.90;;;;;;5026952;28;20185;-83
2023/03/25 00:18:11;;;;;;;3.37;1.83;;;9.40;99.90;;;;;;5029004;28;20181;-85
2023/03/25 00:20:39;;;;;;;2.40;1.40;;;9.50;99.90;;;;;;5026926;28;20297;-83
2023/03/25 00:23:06;;;;;;;5.43;1.80;;;9.40;98.90;;;;;;5025082;28;20260;-84
2023/03/25 00:25:32;;;;;;;3.40;1.70;;;9.50;98.70;;;;;;5007206;28;20266;-84
2023/03/25 00:27:58;;;;;;;3.17;2.00;;;9.40;98.90;;;;;;5023435;28;20189;-84
2023/03/25 00:30:24;;;;;;;1.70;1.60;;;9.40;98.80;;;;;;5021727;28;20213;-83
2023/03/25 00:32:51;;;;;;;3.53;1.80;;;9.50;99.50;;;;;;5026016;28;20201;-85
2023/03/25 00:35:22;;;;;;;2.93;1.70;;;9.50;99.90;;;;;;5012319;28;20177;-85
2023/03/25 00:37:56;;;;;;;2.10;1.73;;;9.40;99.90;;;;;;5027532;28;20247;-83
2023/03/25 00:40:22;;;;;;;3.07;1.80;;;9.50;99.90;;;;;;5010375;28;20165;-83
2023/03/25 00:42:49;;;;;;;3.27;2.00;;;9.50;99.90;;;;;;5027207;28;20200;-83
2023/03/25 00:45:15;;;;;;;2.43;2.03;;;9.50;99.90;;;;;;5027580;28;20182;-82
2023/03/25 00:47:42;;;;;;;3.10;2.10;;;9.50;99.90;;;;;;5027181;28;20178;-86
2023/03/25 00:50:08;;;;;;;4.50;1.80;;;9.60;99.90;;;;;;5009669;28;20236;-83
2023/03/25 00:52:34;;;;;;;3.40;1.97;;;9.60;99.90;;;;;;5045891;28;20728;-83
2023/03/25 00:55:00;;;;;;;3.97;2.00;;;9.60;99.90;;;;;;5046287;28;20216;-84
2023/03/25 00:57:26;;;;;;;2.53;1.43;;;9.60;99.90;;;;;;5045269;28;20216;-85
2023/03/25 00:59:52;;;;;;;3.43;1.70;;;9.60;99.90;;;;;;5045217;28;20181;-83
2023/03/25 01:02:20;;;;;;;3.30;2.07;;;9.70;99.90;;;;;;5044467;28;20254;-84
2023/03/25 01:04:48;;;;;;;5.43;2.13;;;9.70;99.90;;;;;;5036736;28;20205;-85
2023/03/25 01:07:23;;;;;;;3.03;1.93;;;9.60;99.80;;;;;;5030327;28;20190;-85
2023/03/25 01:09:48;;;;;;;2.00;1.80;;;9.60;99.10;;;;;;5025301;28;20208;-82
2023/03/25 01:12:15;;;;;;;2.47;1.60;;;9.60;97.10;;;;;;5025864;28;20610;-84
2023/03/25 01:14:42;;;;;;;3.20;1.77;;;9.60;95.80;;;;;;5044596;28;20326;-83
2023/03/25 01:17:08;;;;;;;4.53;1.90;;;9.70;95.70;;;;;;5046652;28;20228;-84
2023/03/25 01:19:33;;;;;;;3.03;1.90;;;9.70;94.90;;;;;;5044704;28;20191;-83
2023/03/25 01:21:59;;;;;;;3.43;1.60;;;9.70;92.60;;;;;;5029725;28;20280;-83
2023/03/25 01:24:25;;;;;;;4.70;1.90;;;9.80;91.50;;;;;;5035935;28;20192;-84
2023/03/25 01:26:51;;;;;;;4.87;1.60;;;9.80;92.00;;;;;;5043392;28;20199;-86
2023/03/25 01:29:19;;;;;;;3.33;1.73;;;9.80;93.60;;;;;;5044356;28;20201;-82
2023/03/25 01:31:46;;;;;;;4.87;2.17;;;9.70;95.60;;;;;;5043702;28;20176;-81
2023/03/25 01:34:13;;;;;;;4.57;1.80;;;9.70;99.10;;;;;;5045266;28;20187;-86
2023/03/25 01:36:40;;;;;;;2.00;1.20;;;9.40;99.90;;;;;;5045352;28;20410;-82
2023/03/25 01:39:07;;;;;;;2.60;1.60;;;9.10;99.90;;;;;;5045228;28;20177;-85
2023/03/25 01:41:35;;;;;;;2.60;1.40;;;8.90;99.90;;;;;;5034362;28;20177;-85
2023/03/25 01:44:03;;;;;;;2.83;1.60;;;8.80;99.90;;;;;;5026697;28;20280;-82
2023/03/25 01:46:29;;;;;;;1.43;1.30;;;8.60;99.90;;;;;;5025725;28;20188;-82
2023/03/25 01:48:56;;;;;;;2.93;1.40;;;8.60;99.90;;;;;;5025969;28;20174;-83
2023/03/25 01:51:33;;;;;;;1.70;1.27;;;8.50;99.90;;;;;;5026454;28;20654;-83
2023/03/25 01:53:59;;;;;;;2.60;1.43;;;8.50;99.90;;;;;;5026023;28;20235;-85
2023/03/25 01:56:31;;;;;;;2.73;1.10;;;8.50;99.90;;;;;;5025382;28;20178;-84
2023/03/25 01:58:59;;;;;;;1.10;1.10;;;8.40;99.90;;;;;;5025213;28;20181;-86
2023/03/25 02:01:25;;;;;;;1.57;1.47;;;8.40;99.90;;;;;;5032186;28;20196;-83
2023/03/25 02:03:53;;;;;;;1.43;1.23;;;8.30;99.90;;;;;;5028245;28;20207;-82
2023/03/25 02:06:31;;;;;;;1.77;1.60;;;8.30;99.90;;;;;;5024277;28;20440;-84
2023/03/25 02:09:04;;;;;;;1.90;1.37;;;8.30;99.90;;;;;;5007512;28;20212;-84
2023/03/25 02:11:29;;;;;;;2.60;1.30;;;8.20;99.90;;;;;;5026244;28;20190;-84
2023/03/25 02:14:01;;;;;;;1.40;1.30;;;8.20;99.90;;;;;;5024459;28;20277;-83
2023/03/25 02:16:52;;;;;;;1.10;1.10;;;8.20;99.90;;;;;;5023591;28;20174;-84
2023/03/25 02:19:43;;;;;;;1.90;1.27;;;8.20;99.90;;;;;;5023897;28;20171;-85
2023/03/25 02:22:36;;;;;;;1.30;1.20;;;8.10;99.90;;;;;;5023666;28;20201;-87
2023/03/25 02:25:34;;;;;;;2.47;1.23;;;8.00;99.90;;;;;;5024625;28;20584;-84
2023/03/25 02:28:28;;;;;;;1.10;1.00;;;8.00;99.90;;;;;;5039409;28;20196;-84
2023/03/25 02:31:38;;;;;;;3.20;1.13;;;8.00;99.90;;;;;;5034804;28;20240;-83
2023/03/25 02:34:34;;;;;;;1.70;1.33;;;8.00;99.90;;;;;;5032950;28;20279;-83
2023/03/25 02:37:00;;;;;;;2.47;1.40;;;8.00;99.90;;;;;;5046386;28;20172;-83
2023/03/25 02:39:54;;;;;;;1.53;1.30;;;7.90;99.90;;;;;;5045556;28;20196;-84
2023/03/25 02:42:22;;;;;;;1.33;1.23;;;7.90;99.90;;;;;;5045512;28;20236;-82
2023/03/25 02:45:00;;;;;;;1.40;1.10;;;7.90;99.90;;;;;;5026075;28;20182;-85
2023/03/25 02:47:32;;;;;;;1.20;1.20;;;8.00;99.90;;;;;;5026672;28;20185;-83
2023/03/25 02:50:10;;;;;;;1.50;1.40;;;8.00;99.90;;;;;;5026369;28;20197;-86
2023/03/25 02:52:46;;;;;;;1.40;1.30;;;8.00;99.90;;;;;;5027792;28;20260;-84
2023/03/25 02:55:16;;;;;;;1.23;1.17;;;8.00;99.90;;;;;;5028298;28;20229;-86
2023/03/25 02:57:48;;;;;;;1.93;1.40;;;8.00;99.90;;;;;;5035398;28;20231;-81
2023/03/25 03:00:19;;;;;;;1.50;1.40;;;8.00;99.90;;;;;;5033290;28;20197;-82
2023/03/25 03:03:02;;;;;;;2.90;1.23;;;8.00;99.90;;;;;;5029378;28;20209;-84
2023/03/25 03:05:30;;;;;;;1.90;1.37;;;7.90;99.90;;;;;;5030001;28;20185;-84
2023/03/25 03:08:34;;;;;;;2.13;1.40;;;7.90;99.90;;;;;;5034595;28;20177;-84
2023/03/25 03:11:06;;;;;;;1.97;1.33;;;8.00;99.90;;;;;;5048706;28;20219;-85
2023/03/25 03:13:43;;;;;;;2.33;1.40;;;8.00;99.90;;;;;;5047860;28;20201;-83
2023/03/25 03:16:31;;;;;;;2.20;1.40;;;8.00;99.90;;;;;;5045844;28;20176;-85
2023/03/25 03:19:22;;;;;;;1.40;1.30;;;8.00;99.90;;;;;;5048211;28;20166;-83
2023/03/25 03:22:07;;;;;;;1.40;1.30;;;7.90;99.90;;;;;;5034969;28;20169;-84
2023/03/25 03:24:38;;;;;;;1.67;1.47;;;7.90;99.90;;;;;;5027355;28;20177;-82
2023/03/25 03:27:32;;;;;;;1.53;1.23;;;7.90;99.90;;;;;;5029119;28;20169;-84
2023/03/25 03:30:19;;;;;;;3.33;1.40;;;7.90;99.90;;;;;;5027989;28;20224;-85
2023/03/25 03:32:45;;;;;;;1.07;1.07;;;7.90;99.90;;;;;;5029759;28;20197;-82
2023/03/25 03:35:48;;;;;;;1.10;1.03;;;8.00;99.90;;;;;;5028385;28;20174;-86
2023/03/25 03:38:16;;;;;;;1.10;1.10;;;7.90;99.90;;;;;;5026423;28;20193;-82
2023/03/25 03:40:46;;;;;;;1.30;1.20;;;8.00;99.90;;;;;;5029115;28;20241;-84
2023/03/25 03:43:25;;;;;;;1.83;1.30;;;7.90;99.90;;;;;;5029256;28;20289;-85
2023/03/25 03:45:55;;;;;;;1.73;1.07;;;7.90;99.90;;;;;;5028548;28;20185;-83
2023/03/25 03:48:29;;;;;;;2.37;1.17;;;8.00;99.90;;;;;;5034277;28;20241;-86
2023/03/25 03:51:01;;;;;;;1.40;1.20;;;8.00;99.90;;;;;;5036239;28;20205;-82
2023/03/25 03:53:32;;;;;;;1.60;1.50;;;8.00;99.90;;;;;;5035177;28;20221;-83
2023/03/25 03:56:00;;;;;;;1.10;1.10;;;8.00;99.90;;;;;;5035578;28;20597;-83
2023/03/25 03:58:32;;;;;;;2.17;1.50;;;8.00;99.90;;;;;;5027505;28;20174;-85
2023/03/25 04:01:29;;;;;;;1.43;1.30;;;8.00;99.90;;;;;;5029363;28;20176;-83
2023/03/25 04:04:01;;;;;;;2.00;1.43;;;8.10;99.90;;;;;;5028513;28;20205;-82
2023/03/25 04:06:58;;;;;;;1.60;1.30;;;8.00;99.90;;;;;;5047412;28;20229;-82
2023/03/25 04:10:02;;;;;;;1.60;1.50;;;8.10;99.90;;;;;;5047525;28;20232;-86
2023/03/25 04:12:37;;;;;;;1.77;1.50;;;8.20;99.90;;;;;;5043568;28;20283;-80
2023/03/25 04:15:05;;;;;;;4.03;1.53;;;8.30;99.90;;;;;;5047450;28;20207;-83
2023/03/25 04:17:31;;;;;;;3.73;1.70;;;8.40;99.80;;;;;;5047673;28;20173;-84
2023/03/25 04:19:58;;;;;;;1.77;1.47;;;8.30;99.90;;;;;;5048304;28;20231;-85
2023/03/25 04:22:24;;;;;;;1.47;1.37;;;8.40;99.10;;;;;;5028539;28;20205;-83
2023/03/25 04:24:50;;;;;;;2.87;1.30;;;8.40;98.40;;;;;;5028362;28;20264;-85
2023/03/25 04:27:18;;;;;;;3.47;1.80;;;8.50;97.40;;;;;;5028891;28;20188;-84
2023/03/25 04:29:46;;;;;;;2.73;1.87;;;8.50;96.60;;;;;;5028221;28;20205;-86
2023/03/25 04:32:14;;;;;;;2.77;1.63;;;8.60;95.70;;;;;;5027907;28;20216;-85
2023/03/25 04:34:39;;;;;;;3.57;1.83;;;8.50;97.10;;;;;;5028212;28;20204;-85
2023/03/25 04:37:05;;;;;;;2.23;1.53;;;8.50;95.40;;;;;;5029267;28;20189;-85
2023/03/25 04:39:31;;;;;;;3.63;1.70;;;8.50;97.00;;;;;;5027240;28;20178;-86
2023/03/25 04:42:02;;;;;;;2.20;1.63;;;8.50;98.60;;;;;;5026359;28;20185;-84
2023/03/25 04:44:32;;;;;;;3.47;2.23;;;8.50;96.50;;;;;;5027200;28;20173;-86
2023/03/25 04:46:58;;;;;;;4.13;1.80;;;8.50;96.20;;;;;;5026926;28;20201;-86
2023/03/25 04:49:24;;;;;;;4.67;1.90;;;8.60;97.10;;;;;;5028014;28;20228;-84
2023/03/25 04:51:52;;;;;;;2.70;1.47;;;8.60;95.50;;;;;;5033600;28;20185;-84
2023/03/25 04:54:19;;;;;;;3.80;1.90;;;8.60;93.70;;;;;;5027833;28;20189;-84
2023/03/25 04:56:49;;;;;;;3.33;1.87;;;8.70;95.40;;;;;;5026851;28;20226;-87
2023/03/25 04:59:16;;;;;;;2.53;1.53;;;8.70;94.10;;;;;;5010251;28;20188;-85
2023/03/25 05:01:44;;;;;;;4.50;2.00;;;8.60;94.30;;;;;;5027236;28;20198;-83
2023/03/25 05:04:12;;;;;;;3.87;1.87;;;8.70;94.30;;;;;;5027909;28;20240;-85
2023/03/25 05:06:41;;;;;;;1.80;1.70;;;8.70;94.70;;;;;;5025601;28;20192;-87
2023/03/25 05:09:10;;;;;;;3.73;2.10;;;8.70;93.30;;;;;;5008646;28;20185;-86
2023/03/25 05:11:38;;;;;;;2.47;2.20;;;8.70;94.00;;;;;;5041371;28;20181;-82
2023/03/25 05:14:05;;;;;;;3.73;2.30;;;8.70;94.00;;;;;;5021088;28;20201;-85
2023/03/25 05:16:30;;;;;;;4.87;2.40;;;8.70;92.30;;;;;;5045312;28;20193;-84
2023/03/25 05:18:56;;;;;;;4.57;2.00;;;8.60;93.90;;;;;;5045904;28;20227;-83
2023/03/25 05:21:22;;;;;;;3.33;1.80;;;8.60;93.70;;;;;;5036427;28;20181;-83
2023/03/25 05:23:47;;;;;;;6.13;2.33;;;8.60;92.80;;;;;;5029823;28;20259;-85
2023/03/25 05:26:13;;;;;;;4.90;1.97;;;8.60;93.00;;;;;;5045241;28;20184;-85
2023/03/25 05:28:40;;;;;;;5.67;2.20;;;8.60;92.90;;;;;;5046856;28;20181;-85
2023/03/25 05:31:09;;;;;;;4.03;1.70;;;8.60;92.90;;;;;;5046474;28;20201;-86
2023/03/25 05:33:41;;;;;;;3.07;1.97;;;8.60;93.80;;;;;;5046273;28;20201;-85
2023/03/25 05:36:12;;;;;;;4.03;2.33;;;8.60;93.50;;;;;;5044986;28;20161;-83
2023/03/25 05:38:43;;;;;;;5.17;2.03;;;8.80;92.70;;;;;;5033778;28;20181;-85
2023/03/25 05:41:15;;;;;;;5.10;2.00;;;8.80;92.10;;;;;;5007747;28;20723;-84
2023/03/25 05:43:49;;;;;;;4.47;2.20;;;8.90;91.30;;;;;;5023566;28;20503;-83
2023/03/25 05:46:17;;;;;;;3.03;1.90;;;8.90;92.90;;;;;;5014788;28;20531;-82
2023/03/25 05:48:44;;;;;;;8.73;2.53;;;8.80;93.60;;;;;;5025465;28;20184;-85
2023/03/25 05:51:15;;;;;;;4.70;1.90;;;8.80;94.50;;;;;;5045313;28;20220;-86
2023/03/25 05:53:48;;;;;;;5.57;1.97;;;8.80;94.80;;;;;;5030378;28;20209;-84
2023/03/25 05:56:18;;;;;;;5.40;2.07;;;8.70;95.70;;;;;;5046253;28;20181;-86
2023/03/25 05:58:45;;;;;;;2.67;1.90;;;8.70;96.00;;;;;;5046765;28;20185;-81
2023/03/25 06:01:14;;;;;;;6.13;2.27;;;8.80;95.30;;;;;;5039514;28;20182;-85
2023/03/25 06:03:43;;;;;;;4.73;2.23;;;8.80;95.90;;;;;;5025820;28;20217;-84
2023/03/25 06:06:17;;;;;;;5.80;2.07;;;8.70;98.90;;;;;;5025160;28;20197;-86
2023/03/25 06:08:49;;;;;;;6.90;2.40;;;8.70;99.50;;;;;;5025648;28;20173;-85
2023/03/25 06:11:15;;;;;;;6.03;1.87;;;8.70;99.30;;;;;;5040243;28;20201;-85
2023/03/25 06:13:48;;;;;;;2.27;1.90;;;8.70;99.40;;;;;;5046087;28;20201;-87
2023/03/25 06:16:17;;;;;;;3.57;1.70;;;8.70;99.80;;;;;;5045823;28;20226;-85
2023/03/25 06:18:49;;;;;;;2.50;1.87;;;8.70;99.40;;;;;;5010771;28;20204;-84
2023/03/25 06:21:18;;;;;;;3.43;2.00;;;8.80;99.40;;;;;;5023908;28;20185;-85
2023/03/25 06:23:46;;;;;;;3.83;1.80;;;8.80;97.50;;;;;;5027327;28;20201;-83
2023/03/25 06:26:15;;;;;;;5.43;2.00;;;8.80;99.20;;;;;;5027537;28;20204;-87
2023/03/25 06:28:42;;;;;;;4.63;1.73;;;8.70;99.90;;;;;;5031094;28;20177;-84
2023/03/25 06:31:16;;;;;;;3.53;1.73;;;8.60;99.90;;;;;;5012134;28;20197;-82
2023/03/25 06:33:45;;;;;;;2.30;1.60;;;8.60;99.90;;;;;;5028315;28;20198;-85
2023/03/25 06:36:18;;;;;;;1.50;1.40;;;8.60;99.90;;;;;;5030048;28;20210;-87
2023/03/25 06:38:45;;;;;;;3.07;1.63;;;8.60;99.90;;;;;;5012637;28;20182;-85
2023/03/25 06:41:12;;;;;;;5.63;1.90;;;8.60;99.90;;;;;;5029130;28;20865;-87
2023/03/25 06:43:39;;;;;;;4.70;1.73;;;8.60;99.90;;;;;;5039082;28;20201;-83
2023/03/25 06:46:06;;;;;;;5.10;1.90;;;8.70;99.90;;;;;;5014833;28;20930;-86
2023/03/25 06:48:32;;;;;;;3.27;1.60;;;8.70;99.30;;;;;;5032426;28;20181;-85
2023/03/25 06:50:57;;;;;;;4.77;1.90;;;8.70;99.10;;;;;;5014852;28;20370;-88
2023/03/25 06:53:23;;;;;;;1.67;1.57;;;8.70;99.90;;;;;;5026466;28;20232;-80
2023/03/25 06:55:49;;;;;;;2.60;1.80;;;8.80;97.90;;;;;;5031102;28;20170;-88
2023/03/25 06:58:15;;;;;;;2.77;2.00;;;8.90;97.70;;;;;;5030881;28;20174;-85
2023/03/25 07:00:40;;;;;;;4.00;1.80;;;8.90;97.50;;;;;;5031384;28;20181;-87
2023/03/25 07:03:06;;;;;;;5.47;1.80;;;9.00;97.40;;;;;;5040008;28;20242;-87
2023/03/25 07:05:32;;;;;;;3.07;1.67;;;9.00;98.40;;;;;;5037846;28;20185;-85
2023/03/25 07:07:58;;;;;;;4.57;2.03;;;8.90;98.20;;;;;;5012812;28;20185;-87
2023/03/25 07:10:24;;;;;;;3.10;1.70;;;8.90;96.30;;;;;;5030511;28;20237;-84
2023/03/25 07:12:50;;;;;;;3.60;1.80;;;9.00;98.30;;;;;;5033872;28;20228;-87
2023/03/25 07:15:15;;;;;;;4.90;1.83;;;9.20;96.70;;;;;;5040601;28;20182;-85
2023/03/25 07:17:41;;;;;;;2.77;1.80;;;9.20;94.70;;;;;;5031289;28;20181;-84
2023/03/25 07:20:08;;;;;;;3.13;1.60;;;9.40;95.00;;;;;;5031395;28;20208;-86
2023/03/25 07:22:34;;;;;;;6.17;2.23;;;9.50;92.70;;;;;;5032487;28;20193;-90
2023/03/25 07:25:00;;;;;;;1.93;1.70;;;9.50;92.80;;;;;;5032927;28;20177;-85
2023/03/25 07:27:25;;;;;;;4.43;1.60;;;9.50;93.30;;;;;;5034350;28;20235;-87
2023/03/25 07:29:51;;;;;;;3.33;1.80;;;9.60;92.90;;;;;;5032122;28;20197;-86
2023/03/25 07:32:17;;;;;;;2.77;2.03;;;9.60;95.10;;;;;;5028773;28;20205;-83
2023/03/25 07:34:43;;;;;;;2.40;1.63;;;9.60;94.60;;;;;;5029423;28;20182;-89
2023/03/25 07:37:47;;;;;;;6.53;1.90;;;9.50;92.40;;;;;;5030266;28;20185;-89
2023/03/25 07:40:12;;;;;;;3.50;1.80;;;9.50;92.00;;;;;;5033193;28;20194;-85
2023/03/25 07:42:38;;;;;;;5.63;2.00;;;9.50;93.40;;;;;;5031170;28;20313;-85
2023/03/25 07:45:05;;;;;;;3.33;1.70;;;9.50;92.30;;;;;;5031629;28;20194;-83
2023/03/25 07:47:31;;;;;;;2.00;1.47;;;9.70;91.60;;;;;;5022582;28;20185;-87
2023/03/25 07:49:56;;;;;;;2.40;1.80;;;9.90;91.00;;;;;;5008871;28;20210;-86
2023/03/25 07:52:22;;;;;;;3.10;1.70;;;9.80;89.70;;;;;;5022911;28;20193;-86
2023/03/25 07:54:47;;;;;;;1.93;1.60;;;9.70;89.30;;;;;;5028936;28;20217;-86
2023/03/25 07:57:13;;;;;;;1.90;1.50;;;9.80;92.30;;;;;;5023825;28;20268;-84
2023/03/25 07:59:40;;;;;;;2.70;1.40;;;9.80;90.90;;;;;;5025131;28;20186;-86
2023/03/25 08:02:05;;;;;;;4.23;1.70;;;10.00;89.50;;;;;;5010303;28;20555;-89
2023/03/25 08:04:31;;;;;;;3.63;1.77;;;10.30;88.30;;;;;;5030189;28;20200;-88
2023/03/25 08:06:57;;;;;;;1.50;1.40;;;10.20;87.80;;;;;;5029769;28;20186;-86
2023/03/25 08:09:22;;;;;;;3.37;1.37;;;10.10;88.20;;;;;;5027171;28;20204;-90
2023/03/25 08:11:50;;;;;;;2.13;1.70;;;10.10;89.80;;;;;;5031837;28;20315;-85
2023/03/25 08:14:15;;;;;;;3.47;1.93;;;9.90;89.80;;;;;;5032320;28;20182;-88
2023/03/25 08:16:41;;;;;;;1.63;1.53;;;9.80;92.90;;;;;;5012528;28;20192;-86
2023/03/25 08:19:07;;;;;;;4.23;1.47;;;9.50;99.10;;;;;;5032938;28;20209;-86
2023/03/25 08:21:33;;;;;;;2.73;1.50;;;9.20;99.90;;;;;;5029577;28;20250;-86
2023/03/25 08:24:01;;;;;;;2.43;1.40;;;9.00;99.90;;;;;;5029487;28;20208;-87
2023/03/25 08:26:28;;;;;;;1.90;1.50;;;9.00;99.90;;;;;;5029908;28;20177;-85
2023/03/25 08:28:57;;;;;;;2.33;1.60;;;8.80;99.90;;;;;;5030662;28;20201;-84
2023/03/25 08:31:24;;;;;;;2.60;1.40;;;8.80;99.90;;;;;;5037949;28;20206;-82
2023/03/25 08:33:50;;;;;;;3.77;1.70;;;8.80;99.90;;;;;;5028632;28;20198;-90
2023/03/25 08:36:22;;;;;;;1.73;1.50;;;8.80;99.90;;;;;;5033171;28;20205;-85
2023/03/25 08:38:49;;;;;;;2.20;1.80;;;8.80;99.90;;;;;;5040598;28;20401;-86
2023/03/25 08:41:14;;;;;;;1.40;1.30;;;9.00;99.90;;;;;;5039423;28;20173;-82
2023/03/25 08:43:40;;;;;;;1.40;1.30;;;9.10;99.90;;;;;;5046134;28;20235;-86
2023/03/25 08:46:06;;;;;;;1.70;1.50;;;9.20;99.90;;;;;;5047438;28;20185;-86
2023/03/25 08:48:32;;;;;;;2.57;1.90;;;9.20;99.90;;;;;;5028798;28;20212;-87
2023/03/25 08:50:57;;;;;;;2.00;1.40;;;9.40;99.90;;;;;;5047007;28;20208;-89
2023/03/25 08:53:23;;;;;;;2.20;1.70;;;9.50;99.90;;;;;;5044857;28;20213;-86
2023/03/25 08:55:53;;;;;;;2.20;1.47;;;9.50;99.90;;;;;;5037750;28;20180;-87
2023/03/25 08:58:19;;;;;;;2.53;1.60;;;9.40;99.90;;;;;;5047252;28;20172;-82
2023/03/25 09:00:45;;;;;;;2.17;1.70;;;9.50;99.90;;;;;;5049172;28;20263;-87
2023/03/25 09:03:11;;;;;;;1.70;1.60;;;9.40;99.90;;;;;;5041576;28;20197;-89
2023/03/25 09:05:40;;;;;;;3.50;1.40;;;9.30;99.90;;;;;;5030157;28;20199;-87
2023/03/25 09:08:06;;;;;;;1.97;1.40;;;9.40;99.90;;;;;;5043804;28;20260;-82
2023/03/25 09:10:32;;;;;;;2.77;1.77;;;9.50;99.90;;;;;;5049560;28;20211;-87
2023/03/25 09:12:58;;;;;;;2.27;1.50;;;9.40;99.90;;;;;;5049027;28;20233;-86
2023/03/25 09:15:23;;;;;;;1.80;1.70;;;9.50;99.90;;;;;;5049033;28;20172;-85
2023/03/25 09:17:49;;;;;;;2.47;1.77;;;9.20;99.90;;;;;;5032306;28;20185;-83
2023/03/25 09:20:17;;;;;;;4.33;1.77;;;8.90;99.90;;;;;;5025564;28;20181;-89
2023/03/25 09:22:43;;;;;;;4.43;2.00;;;8.80;99.90;;;;;;5025572;28;20610;-83
2023/03/25 09:25:09;;;;;;;3.47;1.47;;;8.80;99.90;;;;;;5036999;28;20185;-83
2023/03/25 09:27:35;;;;;;;1.80;1.70;;;8.80;99.90;;;;;;5044464;28;20173;-87
2023/03/25 09:30:01;;;;;;;1.43;1.33;;;9.00;99.90;;;;;;5024501;28;20455;-84
2023/03/25 09:32:26;;;;;;;2.70;1.83;;;9.00;99.90;;;;;;5020037;28;20208;-89
2023/03/25 09:34:52;;;;;;;3.57;1.73;;;9.00;99.90;;;;;;5025239;28;20280;-88
2023/03/25 09:37:18;;;;;;;5.33;1.83;;;9.00;99.90;;;;;;5043528;28;20256;-84
2023/03/25 09:39:43;;;;;;;2.60;1.90;;;9.10;99.90;;;;;;5026335;28;20771;-86
2023/03/25 09:42:34;;;;;;;2.10;1.90;;;9.00;99.90;;;;;;5008908;28;20205;-84
2023/03/25 09:45:17;;;;;;;3.70;1.93;;;9.20;99.90;;;;;;5026171;28;20177;-87
2023/03/25 09:47:55;;;;;;;3.10;1.67;;;9.20;99.90;;;;;;5025873;28;20166;-81
2023/03/25 09:50:23;;;;;;;3.20;1.57;;;9.20;99.90;;;;;;5025189;28;20213;-85
2023/03/25 09:52:54;;;;;;;4.47;1.70;;;9.50;99.90;;;;;;5024420;28;20209;-83
2023/03/25 09:55:24;;;;;;;1.93;1.70;;;9.80;99.90;;;;;;5043163;28;20193;-82
2023/03/25 09:57:57;;;;;;;2.27;1.70;;;10.20;99.90;;;;;;5044409;28;20206;-85
2023/03/25 10:00:24;;;;;;;2.53;1.90;;;10.40;99.90;;;;;;5044618;28;20252;-85
2023/03/25 10:03:00;;;;;;;3.50;1.60;;;10.60;99.90;;;;;;5026717;28;20216;-83
2023/03/25 10:05:37;;;;;;;1.60;1.50;;;10.70;99.90;;;;;;5034713;28;20180;-86
2023/03/25 10:08:27;;;;;;;1.57;1.47;;;10.70;99.90;;;;;;5020400;28;20190;-86
2023/03/25 10:11:16;;;;;;;1.63;1.50;;;11.10;99.90;;;;;;5027797;28;20239;-83
2023/03/25 10:13:55;;;;;;;3.77;1.73;;;11.40;99.50;;;;;;5038538;28;20753;-84
2023/03/25 10:16:55;;;;;;;2.80;1.70;;;11.30;99.90;;;;;;5047423;28;20183;-83
2023/03/25 10:19:26;;;;;;;1.87;1.77;;;11.40;96.80;;;;;;5051412;28;20172;-88
2023/03/25 10:22:08;;;;;;;2.67;2.03;;;11.40;99.40;;;;;;5023501;28;20193;-84
2023/03/25 10:24:51;;;;;;;2.13;1.80;;;11.40;92.40;;;;;;5024746;28;20176;-89
2023/03/25 10:27:32;;;;;;;2.20;1.90;;;11.40;93.10;;;;;;5021722;28;20182;-90
2023/03/25 10:30:20;;;;;;;2.17;1.73;;;11.60;86.90;;;;;;5024469;28;20196;-84
2023/03/25 10:33:00;;;;;;;3.67;1.70;;;11.90;91.50;;;;;;5037856;28;20201;-89
2023/03/25 10:35:29;;;;;;;3.03;1.80;;;11.80;90.40;;;;;;5011030;28;20193;-84
2023/03/25 10:38:01;;;;;;;4.00;1.97;;;12.20;91.60;;;;;;5010577;28;20176;-85
2023/03/25 10:40:34;;;;;;;4.07;1.70;;;12.40;86.10;;;;;;5010807;28;20156;-91
2023/03/25 10:43:15;;;;;;;1.93;1.73;;;12.20;78.60;;;;;;5008732;28;20581;-85
2023/03/25 10:45:42;;;;;;;3.03;1.80;;;11.90;84.20;;;;;;5008630;28;20198;-87
2023/03/25 10:48:12;;;;;;;4.37;1.83;;;11.70;78.90;;;;;;5044462;28;20256;-87
2023/03/25 10:50:40;;;;;;;2.77;1.70;;;11.70;77.50;;;;;;5046262;28;20204;-83
2023/03/25 10:53:09;;;;;;;3.20;1.70;;;11.80;76.40;;;;;;5046436;28;20218;-86
2023/03/25 10:55:36;;;;;;;5.10;2.10;;;12.00;77.70;;;;;;5047131;28;20216;-87
2023/03/25 10:58:03;;;;;;;3.43;1.60;;;11.70;74.80;;;;;;5047460;28;20173;-88
2023/03/25 11:00:29;;;;;;;3.03;1.87;;;11.70;75.30;;;;;;5044948;28;20261;-85
2023/03/25 11:02:55;;;;;;;3.60;1.97;;;11.50;78.20;;;;;;5028305;28;20190;-89
2023/03/25 11:05:27;;;;;;;4.27;1.80;;;11.50;77.20;;;;;;5029219;28;20178;-87
2023/03/25 11:07:57;;;;;;;2.07;1.80;;;11.50;78.40;;;;;;5028467;28;20178;-84
2023/03/25 11:10:25;;;;;;;2.37;1.70;;;11.70;80.10;;;;;;5027834;28;20216;-91
2023/03/25 11:12:52;;;;;;;2.53;1.70;;;11.70;78.70;;;;;;5031667;28;20228;-88
2023/03/25 11:15:22;;;;;;;3.70;1.90;;;11.80;78.40;;;;;;5041490;28;20181;-85
2023/03/25 11:17:58;;;;;;;23.73;21.53;;;11.80;78.50;;;;;;5049825;28;20173;-89
2023/03/25 11:20:35;;;;;;;2.30;1.70;;;12.00;78.90;;;;;;5049429;28;20200;-87
2023/03/25 11:23:24;;;;;;;3.83;1.70;;;11.90;74.60;;;;;;5041149;28;20538;-87
2023/03/25 11:25:50;;;;;;;2.30;2.00;;;11.80;78.90;;;;;;5032113;28;20703;-83
2023/03/25 11:28:26;;;;;;;2.10;1.70;;;11.80;75.00;;;;;;5033775;28;20205;-84
2023/03/25 11:31:11;;;;;;;3.07;2.07;;;12.10;76.00;;;;;;5050063;28;20197;-86
2023/03/25 11:33:37;;;;;;;2.77;1.77;;;12.20;71.20;;;;;;5050210;28;20189;-84
2023/03/25 11:36:24;;;;;;;3.80;1.80;;;12.10;71.60;;;;;;5050404;28;20203;-86
2023/03/25 11:38:55;;;;;;;3.73;1.90;;;12.10;70.90;;;;;;5050313;28;20217;-88
2023/03/25 11:41:21;;;;;;;3.33;1.80;;;12.10;71.30;;;;;;5049920;28;20191;-89
2023/03/25 11:43:48;;;;;;;2.70;1.77;;;12.10;72.40;;;;;;5049495;28;20212;-84
2023/03/25 11:46:17;;;;;;;5.70;1.80;;;12.20;68.60;;;;;;5048217;28;20253;-84
2023/03/25 11:48:45;;;;;;;3.90;1.70;;;12.10;72.00;;;;;;5049276;28;20185;-87
2023/03/25 11:51:27;;;;;;;2.80;1.73;;;12.40;70.00;;;;;;5049090;28;20258;-88
2023/03/25 11:54:01;;;;;;;2.93;1.90;;;12.90;71.00;;;;;;5048698;28;20223;-91
2023/03/25 11:56:41;;;;;;;3.43;1.70;;;12.50;68.20;;;;;;5049011;28;20170;-83
2023/03/25 11:59:36;;;;;;;3.20;1.70;;;12.40;71.10;;;;;;5050503;28;20187;-86
2023/03/25 12:02:16;;;;;;;3.13;1.70;;;13.30;69.20;;;;;;5050117;28;20169;-86
2023/03/25 12:05:02;;;;;;;1.97;1.57;;;13.40;67.60;;;;;;5050560;28;20182;-82
2023/03/25 12:07:28;;;;;;;2.10;1.70;;;13.50;67.70;;;;;;5033540;28;20208;-86
2023/03/25 12:09:57;;;;;;;2.00;1.70;;;13.60;66.90;;;;;;5013360;28;20228;-83
2023/03/25 12:12:41;;;;;;;4.03;1.60;;;13.50;66.90;;;;;;5030636;28;20194;-86
2023/03/25 12:15:36;;;;;;;2.13;1.70;;;13.60;64.40;;;;;;5048306;28;20190;-88
2023/03/25 12:18:47;;;;;;;2.90;1.87;;;13.70;65.70;;;;;;5050237;28;20183;-86
2023/03/25 12:21:18;;;;;;;2.03;1.90;;;14.00;63.80;;;;;;5030966;28;20211;-89
2023/03/25 12:23:53;;;;;;;4.97;1.87;;;14.30;64.70;;;;;;5031836;28;20231;-87
2023/03/25 12:26:35;;;;;;;2.03;1.57;;;14.30;61.90;;;;;;5013791;28;20204;-81
2023/03/25 12:29:01;;;;;;;2.43;1.63;;;14.10;63.50;;;;;;5029934;28;20192;-87
2023/03/25 12:31:38;;;;;;;2.07;1.77;;;14.10;61.90;;;;;;5030915;28;20212;-86
2023/03/25 12:34:21;;;;;;;2.90;1.70;;;14.10;61.40;;;;;;5036633;28;20198;-82
2023/03/25 12:37:06;;;;;;;2.00;1.60;;;14.00;63.10;;;;;;5049082;28;20169;-90
2023/03/25 12:39:56;;;;;;;2.77;1.73;;;14.40;57.60;;;;;;5049788;28;20165;-84
2023/03/25 12:42:49;;;;;;;1.90;1.60;;;14.70;55.20;;;;;;5048793;28;20252;-86
2023/03/25 12:45:25;;;;;;;2.17;1.53;;;14.90;53.70;;;;;;5048765;28;20171;-85
2023/03/25 12:48:03;;;;;;;2.10;1.53;;;14.70;51.90;;;;;;5045156;28;20178;-87
2023/03/25 12:51:04;;;;;;;3.00;1.90;;;14.90;50.80;;;;;;5029173;28;20201;-90
2023/03/25 12:54:18;;;;;;;2.33;1.80;;;15.10;49.10;;;;;;5029366;28;20218;-89
2023/03/25 12:56:56;;;;;;;3.20;2.00;;;15.30;48.00;;;;;;5029673;28;20173;-86
2023/03/25 13:00:02;;;;;;;1.83;1.53;;;15.30;46.30;;;;;;5029826;28;20170;-86
2023/03/25 13:02:31;;;;;;;2.43;1.90;;;15.40;46.30;;;;;;5040130;28;20205;-92
2023/03/25 13:05:25;;;;;;;2.03;1.83;;;15.70;44.20;;;;;;5049493;28;20197;-90
2023/03/25 13:08:03;;;;;;;2.80;1.90;;;15.20;45.50;;;;;;5009511;28;20236;-84
2023/03/25 13:10:34;;;;;;;2.40;1.80;;;14.80;45.90;;;;;;5009865;28;20197;-87
2023/03/25 13:13:05;;;;;;;2.40;2.00;;;15.20;47.00;;;;;;5020746;28;20866;-86
2023/03/25 13:15:37;;;;;;;2.73;1.70;;;15.30;47.90;;;;;;5047373;28;20188;-87
2023/03/25 13:18:09;;;;;;;2.93;2.07;;;14.80;47.20;;;;;;5028174;28;20184;-84
2023/03/25 13:21:17;;;;;;;7.93;2.47;;;14.30;50.00;;;;;;5028345;28;20173;-85